sensor_id;sensor_type;location;lat;lon;timestamp;temperature;humidity
21592;DHT22;10958;50.892;3.992;2023-05-10T00:01:51;14.30;99.90
21592;DHT22;10958;50.892;3.992;2023-05-10T00:04:20;14.30;99.90
21592;DHT22;10958;50.892;3.992;2023-05-10T00:09:22;14.30;99.90
21592;DHT22;10958;50.892;3.992;2023-05-10T00:11:47;14.10;99.90
21592;DHT22;10958;50.892;3.992;2023-05-10T00:14:14;14.10;99.90
21592;DHT22;10958;50.892;3.992;2023-05-10T00:38:45;14.00;99.90
21592;DHT22;10958;50.892;3.992;2023-05-10T00:41:11;14.00;99.90
21592;DHT22;10958;50.892;3.992;2023-05-10T00:43:37;14.00;99.90
21592;DHT22;10958;50.892;3.992;2023-05-10T00:46:03;14.10;99.90
21592;DHT22;10958;50.892;3.992;2023-05-10T00:48:30;14.10;99.90
21592;DHT22;10958;50.892;3.992;2023-05-10T00:50:56;14.10;99.90
21592;DHT22;10958;50.892;3.992;2023-05-10T00:53:22;14.10;99.90
21592;DHT22;10958;50.892;3.992;2023-05-10T00:55:51;14.10;99.90
21592;DHT22;10958;50.892;3.992;2023-05-10T00:58:17;14.10;99.90
21592;DHT22;10958;50.892;3.992;2023-05-10T01:00:45;14.00;99.90
21592;DHT22;10958;50.892;3.992;2023-05-10T01:03:11;14.10;99.90
21592;DHT22;10958;50.892;3.992;2023-05-10T01:05:37;14.20;99.90
21592;DHT22;10958;50.892;3.992;2023-05-10T01:08:03;14.10;99.90
21592;DHT22;10958;50.892;3.992;2023-05-10T01:10:30;14.10;99.90
21592;DHT22;10958;50.892;3.992;2023-05-10T01:12:57;14.10;99.90
21592;DHT22;10958;50.892;3.992;2023-05-10T01:15:24;14.10;99.90
21592;DHT22;10958;50.892;3.992;2023-05-10T01:17:51;14.10;99.90
21592;DHT22;10958;50.892;3.992;2023-05-10T01:20:19;14.00;99.90
21592;DHT22;10958;50.892;3.992;2023-05-10T01:34:16;13.80;99.90
21592;DHT22;10958;50.892;3.992;2023-05-10T01:36:52;13.70;99.90
21592;DHT22;10958;50.892;3.992;2023-05-10T01:39:47;13.80;99.90
21592;DHT22;10958;50.892;3.992;2023-05-10T01:42:20;13.80;99.90
21592;DHT22;10958;50.892;3.992;2023-05-10T01:49:56;13.90;99.90
21592;DHT22;10958;50.892;3.992;2023-05-10T01:52:38;13.90;99.90
21592;DHT22;10958;50.892;3.992;2023-05-10T01:55:09;14.00;99.90
21592;DHT22;10958;50.892;3.992;2023-05-10T01:57:43;13.90;99.90
21592;DHT22;10958;50.892;3.992;2023-05-10T02:00:10;13.80;99.90
21592;DHT22;10958;50.892;3.992;2023-05-10T02:02:39;13.80;99.90
21592;DHT22;10958;50.892;3.992;2023-05-10T02:05:06;13.90;99.90
21592;DHT22;10958;50.892;3.992;2023-05-10T02:07:35;14.00;99.90
21592;DHT22;10958;50.892;3.992;2023-05-10T02:10:03;14.10;99.90
21592;DHT22;10958;50.892;3.992;2023-05-10T02:12:31;14.00;99.90
21592;DHT22;10958;50.892;3.992;2023-05-10T02:14:59;14.00;99.90
21592;DHT22;10958;50.892;3.992;2023-05-10T02:17:27;13.90;99.90
21592;DHT22;10958;50.892;3.992;2023-05-10T02:19:55;13.90;99.90
21592;DHT22;10958;50.892;3.992;2023-05-10T02:22:22;13.90;99.90
21592;DHT22;10958;50.892;3.992;2023-05-10T02:24:49;14.10;99.90
21592;DHT22;10958;50.892;3.992;2023-05-10T02:27:17;13.90;99.90
21592;DHT22;10958;50.892;3.992;2023-05-10T02:29:44;13.70;99.90
21592;DHT22;10958;50.892;3.992;2023-05-10T02:32:11;13.50;99.90
21592;DHT22;10958;50.892;3.992;2023-05-10T02:34:38;13.50;99.90
21592;DHT22;10958;50.892;3.992;2023-05-10T02:37:04;13.50;99.90
21592;DHT22;10958;50.892;3.992;2023-05-10T02:39:31;13.50;99.90
21592;DHT22;10958;50.892;3.992;2023-05-10T02:41:57;13.50;99.90
21592;DHT22;10958;50.892;3.992;2023-05-10T02:44:25;13.70;99.90
21592;DHT22;10958;50.892;3.992;2023-05-10T02:46:55;13.50;99.90
21592;DHT22;10958;50.892;3.992;2023-05-10T02:49:21;13.40;99.90
21592;DHT22;10958;50.892;3.992;2023-05-10T02:51:51;13.50;99.90
21592;DHT22;10958;50.892;3.992;2023-05-10T02:54:27;13.70;99.90
21592;DHT22;10958;50.892;3.992;2023-05-10T02:56:57;13.90;99.90
21592;DHT22;10958;50.892;3.992;2023-05-10T02:59:24;13.80;99.90
21592;DHT22;10958;50.892;3.992;2023-05-10T03:01:50;13.70;99.90
21592;DHT22;10958;50.892;3.992;2023-05-10T03:04:16;13.60;99.90
21592;DHT22;10958;50.892;3.992;2023-05-10T03:06:45;13.60;99.90
21592;DHT22;10958;50.892;3.992;2023-05-10T03:09:11;13.70;99.90
21592;DHT22;10958;50.892;3.992;2023-05-10T03:12:00;13.70;99.90
21592;DHT22;10958;50.892;3.992;2023-05-10T03:14:49;13.60;99.90
21592;DHT22;10958;50.892;3.992;2023-05-10T03:20:15;13.60;99.90
21592;DHT22;10958;50.892;3.992;2023-05-10T03:22:46;13.40;99.90
21592;DHT22;10958;50.892;3.992;2023-05-10T03:25:15;13.50;99.90
21592;DHT22;10958;50.892;3.992;2023-05-10T03:27:43;13.50;99.90
21592;DHT22;10958;50.892;3.992;2023-05-10T03:30:11;13.40;99.90
21592;DHT22;10958;50.892;3.992;2023-05-10T03:32:37;13.40;99.90
21592;DHT22;10958;50.892;3.992;2023-05-10T03:35:10;13.50;99.90
21592;DHT22;10958;50.892;3.992;2023-05-10T03:37:37;13.50;99.90
21592;DHT22;10958;50.892;3.992;2023-05-10T03:40:03;13.60;99.90
21592;DHT22;10958;50.892;3.992;2023-05-10T03:42:29;13.50;99.90
21592;DHT22;10958;50.892;3.992;2023-05-10T03:44:57;13.60;99.90
21592;DHT22;10958;50.892;3.992;2023-05-10T03:47:23;13.70;99.90
21592;DHT22;10958;50.892;3.992;2023-05-10T03:49:48;13.70;99.90
21592;DHT22;10958;50.892;3.992;2023-05-10T03:52:14;13.40;99.90
21592;DHT22;10958;50.892;3.992;2023-05-10T03:54:40;13.50;99.90
21592;DHT22;10958;50.892;3.992;2023-05-10T03:57:06;13.40;99.90
21592;DHT22;10958;50.892;3.992;2023-05-10T03:59:34;13.50;99.90
21592;DHT22;10958;50.892;3.992;2023-05-10T04:01:59;13.50;99.90
21592;DHT22;10958;50.892;3.992;2023-05-10T04:04:28;13.30;99.90
21592;DHT22;10958;50.892;3.992;2023-05-10T04:06:54;13.30;99.90
21592;DHT22;10958;50.892;3.992;2023-05-10T04:09:20;13.30;99.90
21592;DHT22;10958;50.892;3.992;2023-05-10T04:11:45;13.30;99.90
21592;DHT22;10958;50.892;3.992;2023-05-10T04:14:11;13.30;99.90
21592;DHT22;10958;50.892;3.992;2023-05-10T04:16:37;13.20;99.90
21592;DHT22;10958;50.892;3.992;2023-05-10T04:19:03;13.00;99.90
21592;DHT22;10958;50.892;3.992;2023-05-10T04:21:29;13.20;99.90
21592;DHT22;10958;50.892;3.992;2023-05-10T04:23:55;13.30;99.90
21592;DHT22;10958;50.892;3.992;2023-05-10T04:26:21;13.40;99.90
21592;DHT22;10958;50.892;3.992;2023-05-10T04:28:50;13.50;99.90
21592;DHT22;10958;50.892;3.992;2023-05-10T04:31:16;13.40;99.90
21592;DHT22;10958;50.892;3.992;2023-05-10T04:33:44;13.40;99.90
21592;DHT22;10958;50.892;3.992;2023-05-10T04:36:10;13.50;99.90
21592;DHT22;10958;50.892;3.992;2023-05-10T04:38:36;13.60;99.90
21592;DHT22;10958;50.892;3.992;2023-05-10T04:41:08;13.50;99.90
21592;DHT22;10958;50.892;3.992;2023-05-10T04:43:35;13.50;99.90
21592;DHT22;10958;50.892;3.992;2023-05-10T04:46:01;13.40;99.90
21592;DHT22;10958;50.892;3.992;2023-05-10T04:48:27;13.40;99.90
21592;DHT22;10958;50.892;3.992;2023-05-10T04:50:53;13.30;99.90
21592;DHT22;10958;50.892;3.992;2023-05-10T04:53:19;13.30;99.90
21592;DHT22;10958;50.892;3.992;2023-05-10T04:55:47;13.10;99.90
21592;DHT22;10958;50.892;3.992;2023-05-10T04:58:15;13.00;99.90
21592;DHT22;10958;50.892;3.992;2023-05-10T05:00:41;13.00;99.90
21592;DHT22;10958;50.892;3.992;2023-05-10T05:03:12;12.80;99.90
21592;DHT22;10958;50.892;3.992;2023-05-10T05:05:38;12.90;99.90
21592;DHT22;10958;50.892;3.992;2023-05-10T05:08:03;13.10;99.90
21592;DHT22;10958;50.892;3.992;2023-05-10T05:10:29;13.20;99.90
21592;DHT22;10958;50.892;3.992;2023-05-10T05:12:55;13.20;99.90
21592;DHT22;10958;50.892;3.992;2023-05-10T05:15:21;13.00;99.90
21592;DHT22;10958;50.892;3.992;2023-05-10T05:17:47;13.10;99.90
21592;DHT22;10958;50.892;3.992;2023-05-10T05:20:12;13.10;99.90
21592;DHT22;10958;50.892;3.992;2023-05-10T05:22:38;13.10;99.90
21592;DHT22;10958;50.892;3.992;2023-05-10T05:25:05;13.10;99.90
21592;DHT22;10958;50.892;3.992;2023-05-10T05:27:31;13.10;99.90
21592;DHT22;10958;50.892;3.992;2023-05-10T05:29:57;13.20;99.90
21592;DHT22;10958;50.892;3.992;2023-05-10T05:32:25;13.10;99.90
21592;DHT22;10958;50.892;3.992;2023-05-10T05:34:51;13.00;99.90
21592;DHT22;10958;50.892;3.992;2023-05-10T05:37:19;13.10;99.90
21592;DHT22;10958;50.892;3.992;2023-05-10T05:39:45;13.10;99.90
21592;DHT22;10958;50.892;3.992;2023-05-10T05:42:14;13.30;99.90
21592;DHT22;10958;50.892;3.992;2023-05-10T05:44:41;13.30;99.90
21592;DHT22;10958;50.892;3.992;2023-05-10T05:47:07;13.40;99.90
21592;DHT22;10958;50.892;3.992;2023-05-10T05:49:34;13.50;99.90
21592;DHT22;10958;50.892;3.992;2023-05-10T05:52:03;13.60;99.90
21592;DHT22;10958;50.892;3.992;2023-05-10T05:54:30;13.60;99.90
21592;DHT22;10958;50.892;3.992;2023-05-10T05:57:00;13.70;99.90
21592;DHT22;10958;50.892;3.992;2023-05-10T05:59:26;13.80;99.90
21592;DHT22;10958;50.892;3.992;2023-05-10T06:01:52;13.70;99.90
21592;DHT22;10958;50.892;3.992;2023-05-10T06:04:20;13.70;99.90
21592;DHT22;10958;50.892;3.992;2023-05-10T06:06:46;13.70;99.90
21592;DHT22;10958;50.892;3.992;2023-05-10T06:09:12;13.70;99.90
21592;DHT22;10958;50.892;3.992;2023-05-10T06:11:41;13.80;99.90
21592;DHT22;10958;50.892;3.992;2023-05-10T06:14:06;13.80;99.90
21592;DHT22;10958;50.892;3.992;2023-05-10T06:16:36;14.00;99.90
21592;DHT22;10958;50.892;3.992;2023-05-10T06:19:02;14.00;99.90
21592;DHT22;10958;50.892;3.992;2023-05-10T06:21:28;13.90;99.90
21592;DHT22;10958;50.892;3.992;2023-05-10T06:23:54;13.90;99.90
21592;DHT22;10958;50.892;3.992;2023-05-10T06:26:20;13.80;99.90
21592;DHT22;10958;50.892;3.992;2023-05-10T06:28:46;13.80;99.90
21592;DHT22;10958;50.892;3.992;2023-05-10T06:31:12;13.80;99.90
21592;DHT22;10958;50.892;3.992;2023-05-10T06:33:40;13.80;99.90
21592;DHT22;10958;50.892;3.992;2023-05-10T06:36:06;13.70;99.90
21592;DHT22;10958;50.892;3.992;2023-05-10T06:38:32;13.70;99.90
21592;DHT22;10958;50.892;3.992;2023-05-10T06:40:58;13.80;99.90
21592;DHT22;10958;50.892;3.992;2023-05-10T06:43:24;13.90;99.90
21592;DHT22;10958;50.892;3.992;2023-05-10T06:45:50;14.10;99.90
21592;DHT22;10958;50.892;3.992;2023-05-10T06:48:15;14.10;99.90
21592;DHT22;10958;50.892;3.992;2023-05-10T06:50:41;14.10;99.90
21592;DHT22;10958;50.892;3.992;2023-05-10T06:53:07;14.10;99.90
21592;DHT22;10958;50.892;3.992;2023-05-10T06:55:36;14.20;99.90
21592;DHT22;10958;50.892;3.992;2023-05-10T06:58:03;14.20;99.90
21592;DHT22;10958;50.892;3.992;2023-05-10T07:00:32;14.10;99.90
21592;DHT22;10958;50.892;3.992;2023-05-10T07:03:00;14.00;99.90
21592;DHT22;10958;50.892;3.992;2023-05-10T07:05:26;13.90;99.90
21592;DHT22;10958;50.892;3.992;2023-05-10T07:07:53;14.10;99.90
21592;DHT22;10958;50.892;3.992;2023-05-10T07:10:23;14.20;99.90
21592;DHT22;10958;50.892;3.992;2023-05-10T07:12:49;14.10;99.90
21592;DHT22;10958;50.892;3.992;2023-05-10T07:15:15;14.10;99.90
21592;DHT22;10958;50.892;3.992;2023-05-10T07:17:41;14.00;99.90
21592;DHT22;10958;50.892;3.992;2023-05-10T07:20:07;13.80;99.90
21592;DHT22;10958;50.892;3.992;2023-05-10T07:22:36;13.90;99.90
21592;DHT22;10958;50.892;3.992;2023-05-10T07:25:05;13.80;99.90
21592;DHT22;10958;50.892;3.992;2023-05-10T07:27:31;14.00;99.90
21592;DHT22;10958;50.892;3.992;2023-05-10T07:29:56;13.90;99.90
21592;DHT22;10958;50.892;3.992;2023-05-10T07:32:22;14.00;99.90
21592;DHT22;10958;50.892;3.992;2023-05-10T07:34:48;14.00;99.90
21592;DHT22;10958;50.892;3.992;2023-05-10T07:37:16;14.20;99.90
21592;DHT22;10958;50.892;3.992;2023-05-10T07:39:41;14.30;99.90
21592;DHT22;10958;50.892;3.992;2023-05-10T07:42:07;14.20;99.90
21592;DHT22;10958;50.892;3.992;2023-05-10T07:44:33;14.10;99.90
21592;DHT22;10958;50.892;3.992;2023-05-10T07:46:59;14.10;99.90
21592;DHT22;10958;50.892;3.992;2023-05-10T07:49:25;14.20;99.90
21592;DHT22;10958;50.892;3.992;2023-05-10T07:51:51;14.20;99.90
21592;DHT22;10958;50.892;3.992;2023-05-10T07:54:17;14.20;99.90
21592;DHT22;10958;50.892;3.992;2023-05-10T07:56:43;14.20;99.90
21592;DHT22;10958;50.892;3.992;2023-05-10T07:59:15;14.20;99.90
21592;DHT22;10958;50.892;3.992;2023-05-10T08:01:41;14.10;99.90
21592;DHT22;10958;50.892;3.992;2023-05-10T08:04:07;14.10;99.90
21592;DHT22;10958;50.892;3.992;2023-05-10T08:06:32;14.10;99.90
21592;DHT22;10958;50.892;3.992;2023-05-10T08:08:58;14.10;99.90
21592;DHT22;10958;50.892;3.992;2023-05-10T08:11:24;14.00;99.90
21592;DHT22;10958;50.892;3.992;2023-05-10T08:13:52;14.10;99.90
21592;DHT22;10958;50.892;3.992;2023-05-10T08:16:18;14.10;99.90
21592;DHT22;10958;50.892;3.992;2023-05-10T08:18:45;14.10;99.90
21592;DHT22;10958;50.892;3.992;2023-05-10T08:21:14;14.10;99.90
21592;DHT22;10958;50.892;3.992;2023-05-10T08:23:40;14.00;99.90
21592;DHT22;10958;50.892;3.992;2023-05-10T08:26:07;13.90;99.90
21592;DHT22;10958;50.892;3.992;2023-05-10T08:28:33;13.80;99.90
21592;DHT22;10958;50.892;3.992;2023-05-10T08:30:58;13.90;99.90
21592;DHT22;10958;50.892;3.992;2023-05-10T08:33:24;13.90;99.90
21592;DHT22;10958;50.892;3.992;2023-05-10T08:35:52;13.90;99.90
21592;DHT22;10958;50.892;3.992;2023-05-10T08:38:20;13.80;99.90
21592;DHT22;10958;50.892;3.992;2023-05-10T08:40:47;13.80;99.90
21592;DHT22;10958;50.892;3.992;2023-05-10T08:43:21;13.80;99.90
21592;DHT22;10958;50.892;3.992;2023-05-10T08:45:54;13.80;99.90
21592;DHT22;10958;50.892;3.992;2023-05-10T08:48:23;13.70;99.90
21592;DHT22;10958;50.892;3.992;2023-05-10T08:50:53;13.60;99.90
21592;DHT22;10958;50.892;3.992;2023-05-10T08:53:20;13.50;99.90
21592;DHT22;10958;50.892;3.992;2023-05-10T08:55:47;13.60;99.90
21592;DHT22;10958;50.892;3.992;2023-05-10T08:58:13;13.60;99.90
21592;DHT22;10958;50.892;3.992;2023-05-10T09:00:40;13.60;99.90
21592;DHT22;10958;50.892;3.992;2023-05-10T09:03:05;13.60;99.90
21592;DHT22;10958;50.892;3.992;2023-05-10T09:05:33;13.60;99.90
21592;DHT22;10958;50.892;3.992;2023-05-10T09:08:01;13.60;99.90
21592;DHT22;10958;50.892;3.992;2023-05-10T09:10:30;13.80;99.90
21592;DHT22;10958;50.892;3.992;2023-05-10T09:12:57;13.80;99.90
21592;DHT22;10958;50.892;3.992;2023-05-10T09:15:23;13.90;99.90
21592;DHT22;10958;50.892;3.992;2023-05-10T09:17:49;14.00;99.90
21592;DHT22;10958;50.892;3.992;2023-05-10T09:20:18;14.10;99.90
21592;DHT22;10958;50.892;3.992;2023-05-10T09:22:46;14.20;99.90
21592;DHT22;10958;50.892;3.992;2023-05-10T09:25:15;14.00;99.90
21592;DHT22;10958;50.892;3.992;2023-05-10T09:27:44;14.00;99.90
21592;DHT22;10958;50.892;3.992;2023-05-10T09:30:16;13.90;99.90
21592;DHT22;10958;50.892;3.992;2023-05-10T09:32:44;14.00;99.90
21592;DHT22;10958;50.892;3.992;2023-05-10T09:35:16;13.80;99.90
21592;DHT22;10958;50.892;3.992;2023-05-10T09:37:47;13.90;99.90
21592;DHT22;10958;50.892;3.992;2023-05-10T09:40:15;14.00;99.90
21592;DHT22;10958;50.892;3.992;2023-05-10T09:42:49;14.00;99.90
21592;DHT22;10958;50.892;3.992;2023-05-10T09:45:18;13.90;99.90
21592;DHT22;10958;50.892;3.992;2023-05-10T09:47:45;14.00;99.90
21592;DHT22;10958;50.892;3.992;2023-05-10T09:50:13;14.10;99.90
21592;DHT22;10958;50.892;3.992;2023-05-10T09:52:59;14.10;99.90
21592;DHT22;10958;50.892;3.992;2023-05-10T09:55:41;14.20;99.90
21592;DHT22;10958;50.892;3.992;2023-05-10T09:58:11;14.30;99.90
21592;DHT22;10958;50.892;3.992;2023-05-10T10:00:39;14.50;99.90
21592;DHT22;10958;50.892;3.992;2023-05-10T10:03:06;14.60;99.90
21592;DHT22;10958;50.892;3.992;2023-05-10T10:05:33;14.80;99.90
21592;DHT22;10958;50.892;3.992;2023-05-10T10:08:02;14.70;99.90
21592;DHT22;10958;50.892;3.992;2023-05-10T10:10:28;14.90;99.90
21592;DHT22;10958;50.892;3.992;2023-05-10T10:12:54;15.10;99.90
21592;DHT22;10958;50.892;3.992;2023-05-10T10:15:21;15.20;99.90
21592;DHT22;10958;50.892;3.992;2023-05-10T10:17:49;15.30;99.90
21592;DHT22;10958;50.892;3.992;2023-05-10T10:20:15;15.30;99.90
21592;DHT22;10958;50.892;3.992;2023-05-10T10:22:41;15.30;99.90
21592;DHT22;10958;50.892;3.992;2023-05-10T10:25:10;15.00;99.90
21592;DHT22;10958;50.892;3.992;2023-05-10T10:35:29;15.30;99.90
21592;DHT22;10958;50.892;3.992;2023-05-10T10:37:56;15.50;99.90
21592;DHT22;10958;50.892;3.992;2023-05-10T10:42:56;15.50;99.90
21592;DHT22;10958;50.892;3.992;2023-05-10T10:45:22;15.50;99.90
21592;DHT22;10958;50.892;3.992;2023-05-10T10:47:53;15.70;99.90
21592;DHT22;10958;50.892;3.992;2023-05-10T10:50:19;15.60;99.90
21592;DHT22;10958;50.892;3.992;2023-05-10T10:52:46;15.60;99.90
21592;DHT22;10958;50.892;3.992;2023-05-10T10:55:17;15.50;99.90
21592;DHT22;10958;50.892;3.992;2023-05-10T11:02:59;15.60;99.90
21592;DHT22;10958;50.892;3.992;2023-05-10T11:05:33;15.60;99.90
21592;DHT22;10958;50.892;3.992;2023-05-10T11:08:32;15.80;99.90
21592;DHT22;10958;50.892;3.992;2023-05-10T11:16:23;16.20;99.90
21592;DHT22;10958;50.892;3.992;2023-05-10T11:18:57;16.20;99.90
21592;DHT22;10958;50.892;3.992;2023-05-10T11:21:24;16.20;99.90
21592;DHT22;10958;50.892;3.992;2023-05-10T11:23:54;16.00;99.90
21592;DHT22;10958;50.892;3.992;2023-05-10T11:26:23;16.10;99.90
21592;DHT22;10958;50.892;3.992;2023-05-10T11:28:53;16.40;99.90
21592;DHT22;10958;50.892;3.992;2023-05-10T11:31:23;16.60;99.90
21592;DHT22;10958;50.892;3.992;2023-05-10T11:33:56;16.50;99.90
21592;DHT22;10958;50.892;3.992;2023-05-10T11:36:27;16.60;99.90
21592;DHT22;10958;50.892;3.992;2023-05-10T11:38:54;16.60;99.90
21592;DHT22;10958;50.892;3.992;2023-05-10T11:41:21;16.60;99.90
21592;DHT22;10958;50.892;3.992;2023-05-10T11:43:53;16.40;99.90
21592;DHT22;10958;50.892;3.992;2023-05-10T11:46:21;16.60;99.90
21592;DHT22;10958;50.892;3.992;2023-05-10T11:48:58;16.80;99.90
21592;DHT22;10958;50.892;3.992;2023-05-10T11:51:32;16.80;99.90
21592;DHT22;10958;50.892;3.992;2023-05-10T11:53:58;16.90;99.90
21592;DHT22;10958;50.892;3.992;2023-05-10T11:56:26;16.90;99.90
21592;DHT22;10958;50.892;3.992;2023-05-10T11:58:56;16.90;99.90
21592;DHT22;10958;50.892;3.992;2023-05-10T12:01:26;16.80;99.90
21592;DHT22;10958;50.892;3.992;2023-05-10T12:03:54;16.80;99.90
21592;DHT22;10958;50.892;3.992;2023-05-10T12:08:35;16.60;99.90
21592;DHT22;10958;50.892;3.992;2023-05-10T12:11:07;16.50;99.90
21592;DHT22;10958;50.892;3.992;2023-05-10T12:13:37;16.60;99.90
21592;DHT22;10958;50.892;3.992;2023-05-10T12:16:23;16.50;99.90
21592;DHT22;10958;50.892;3.992;2023-05-10T12:18:53;16.40;99.90
21592;DHT22;10958;50.892;3.992;2023-05-10T12:21:22;16.50;99.90
21592;DHT22;10958;50.892;3.992;2023-05-10T12:23:50;16.40;99.90
21592;DHT22;10958;50.892;3.992;2023-05-10T12:26:17;16.40;99.90
21592;DHT22;10958;50.892;3.992;2023-05-10T12:28:43;16.40;99.90
21592;DHT22;10958;50.892;3.992;2023-05-10T12:31:09;16.40;99.90
21592;DHT22;10958;50.892;3.992;2023-05-10T12:33:39;16.30;99.90
21592;DHT22;10958;50.892;3.992;2023-05-10T12:36:15;16.30;99.90
21592;DHT22;10958;50.892;3.992;2023-05-10T12:38:42;16.40;99.90
21592;DHT22;10958;50.892;3.992;2023-05-10T12:41:10;16.30;99.90
21592;DHT22;10958;50.892;3.992;2023-05-10T12:43:37;16.30;99.90
21592;DHT22;10958;50.892;3.992;2023-05-10T12:46:07;16.50;99.90
21592;DHT22;10958;50.892;3.992;2023-05-10T12:48:34;16.50;99.90
21592;DHT22;10958;50.892;3.992;2023-05-10T12:51:01;16.50;99.90
21592;DHT22;10958;50.892;3.992;2023-05-10T12:53:29;16.50;99.90
21592;DHT22;10958;50.892;3.992;2023-05-10T12:55:55;16.50;99.90
21592;DHT22;10958;50.892;3.992;2023-05-10T12:58:21;16.40;99.90
21592;DHT22;10958;50.892;3.992;2023-05-10T13:00:47;16.40;99.90
21592;DHT22;10958;50.892;3.992;2023-05-10T13:03:13;16.40;99.90
21592;DHT22;10958;50.892;3.992;2023-05-10T13:05:44;16.40;99.90
21592;DHT22;10958;50.892;3.992;2023-05-10T13:08:09;16.50;99.90
21592;DHT22;10958;50.892;3.992;2023-05-10T13:10:37;16.70;99.90
21592;DHT22;10958;50.892;3.992;2023-05-10T13:13:06;16.80;99.90
21592;DHT22;10958;50.892;3.992;2023-05-10T13:15:32;16.80;99.90
21592;DHT22;10958;50.892;3.992;2023-05-10T13:17:59;16.90;99.90
21592;DHT22;10958;50.892;3.992;2023-05-10T13:20:25;16.90;99.90
21592;DHT22;10958;50.892;3.992;2023-05-10T13:22:52;17.00;99.90
21592;DHT22;10958;50.892;3.992;2023-05-10T13:25:20;17.10;99.90
21592;DHT22;10958;50.892;3.992;2023-05-10T13:27:49;17.30;99.90
21592;DHT22;10958;50.892;3.992;2023-05-10T13:30:17;17.40;99.90
21592;DHT22;10958;50.892;3.992;2023-05-10T13:32:43;17.50;99.90
21592;DHT22;10958;50.892;3.992;2023-05-10T13:35:08;17.50;99.90
21592;DHT22;10958;50.892;3.992;2023-05-10T13:37:37;17.60;99.90
21592;DHT22;10958;50.892;3.992;2023-05-10T13:40:03;17.50;99.90
21592;DHT22;10958;50.892;3.992;2023-05-10T13:42:34;17.30;99.90
21592;DHT22;10958;50.892;3.992;2023-05-10T13:45:00;17.40;99.90
21592;DHT22;10958;50.892;3.992;2023-05-10T13:47:27;17.50;99.90
21592;DHT22;10958;50.892;3.992;2023-05-10T13:49:53;17.30;99.90
21592;DHT22;10958;50.892;3.992;2023-05-10T13:52:18;17.20;99.90
21592;DHT22;10958;50.892;3.992;2023-05-10T13:54:44;17.00;99.90
21592;DHT22;10958;50.892;3.992;2023-05-10T13:57:10;17.00;99.90
21592;DHT22;10958;50.892;3.992;2023-05-10T13:59:38;17.00;99.90
21592;DHT22;10958;50.892;3.992;2023-05-10T14:02:03;17.00;99.90
21592;DHT22;10958;50.892;3.992;2023-05-10T14:04:29;16.90;99.90
21592;DHT22;10958;50.892;3.992;2023-05-10T14:06:56;16.70;99.90
21592;DHT22;10958;50.892;3.992;2023-05-10T14:09:22;16.30;99.90
21592;DHT22;10958;50.892;3.992;2023-05-10T14:11:48;16.10;99.90
21592;DHT22;10958;50.892;3.992;2023-05-10T14:14:14;15.70;99.90
21592;DHT22;10958;50.892;3.992;2023-05-10T14:16:45;15.40;99.90
21592;DHT22;10958;50.892;3.992;2023-05-10T14:19:11;15.30;99.90
21592;DHT22;10958;50.892;3.992;2023-05-10T14:21:37;15.00;99.90
21592;DHT22;10958;50.892;3.992;2023-05-10T14:24:06;14.90;99.90
21592;DHT22;10958;50.892;3.992;2023-05-10T14:26:32;14.70;99.90
21592;DHT22;10958;50.892;3.992;2023-05-10T14:28:59;14.60;99.90
21592;DHT22;10958;50.892;3.992;2023-05-10T14:31:25;14.70;99.90
21592;DHT22;10958;50.892;3.992;2023-05-10T14:33:51;14.70;99.90
21592;DHT22;10958;50.892;3.992;2023-05-10T14:36:17;14.80;99.90
21592;DHT22;10958;50.892;3.992;2023-05-10T14:38:43;14.90;99.90
21592;DHT22;10958;50.892;3.992;2023-05-10T14:41:09;15.00;99.90
21592;DHT22;10958;50.892;3.992;2023-05-10T14:43:39;15.00;99.90
21592;DHT22;10958;50.892;3.992;2023-05-10T14:46:05;15.10;99.90
21592;DHT22;10958;50.892;3.992;2023-05-10T14:48:30;15.20;99.90
21592;DHT22;10958;50.892;3.992;2023-05-10T14:50:56;15.30;99.90
21592;DHT22;10958;50.892;3.992;2023-05-10T14:53:24;15.40;99.90
21592;DHT22;10958;50.892;3.992;2023-05-10T14:55:50;15.40;99.90
21592;DHT22;10958;50.892;3.992;2023-05-10T14:58:15;15.50;99.90
21592;DHT22;10958;50.892;3.992;2023-05-10T15:00:42;15.60;99.90
21592;DHT22;10958;50.892;3.992;2023-05-10T15:03:08;15.60;99.90
21592;DHT22;10958;50.892;3.992;2023-05-10T15:05:36;15.60;99.90
21592;DHT22;10958;50.892;3.992;2023-05-10T15:08:03;15.70;99.90
21592;DHT22;10958;50.892;3.992;2023-05-10T15:10:32;15.70;99.90
21592;DHT22;10958;50.892;3.992;2023-05-10T15:12:58;15.80;99.90
21592;DHT22;10958;50.892;3.992;2023-05-10T15:15:24;15.80;99.90
21592;DHT22;10958;50.892;3.992;2023-05-10T15:17:50;15.90;99.90
21592;DHT22;10958;50.892;3.992;2023-05-10T15:20:16;15.90;99.90
21592;DHT22;10958;50.892;3.992;2023-05-10T15:22:41;15.90;99.90
21592;DHT22;10958;50.892;3.992;2023-05-10T15:25:07;15.90;99.90
21592;DHT22;10958;50.892;3.992;2023-05-10T15:27:33;15.90;99.90
21592;DHT22;10958;50.892;3.992;2023-05-10T15:30:02;16.00;99.90
21592;DHT22;10958;50.892;3.992;2023-05-10T15:32:27;16.00;99.90
21592;DHT22;10958;50.892;3.992;2023-05-10T15:34:54;16.00;99.90
21592;DHT22;10958;50.892;3.992;2023-05-10T15:37:20;15.80;99.90
21592;DHT22;10958;50.892;3.992;2023-05-10T15:39:46;15.80;99.90
21592;DHT22;10958;50.892;3.992;2023-05-10T15:42:12;15.80;99.90
21592;DHT22;10958;50.892;3.992;2023-05-10T15:44:38;15.80;99.90
21592;DHT22;10958;50.892;3.992;2023-05-10T15:47:09;15.80;99.90
21592;DHT22;10958;50.892;3.992;2023-05-10T15:49:35;15.90;99.90
21592;DHT22;10958;50.892;3.992;2023-05-10T15:52:01;16.10;99.90
21592;DHT22;10958;50.892;3.992;2023-05-10T15:54:26;16.20;99.90
21592;DHT22;10958;50.892;3.992;2023-05-10T15:56:54;16.20;99.90
21592;DHT22;10958;50.892;3.992;2023-05-10T15:59:20;16.20;99.90
21592;DHT22;10958;50.892;3.992;2023-05-10T16:01:45;16.00;99.90
21592;DHT22;10958;50.892;3.992;2023-05-10T16:04:12;16.10;99.90
21592;DHT22;10958;50.892;3.992;2023-05-10T16:06:40;15.70;99.90
21592;DHT22;10958;50.892;3.992;2023-05-10T16:09:06;15.40;99.90
21592;DHT22;10958;50.892;3.992;2023-05-10T16:11:31;15.70;99.90
21592;DHT22;10958;50.892;3.992;2023-05-10T16:13:57;16.00;99.90
21592;DHT22;10958;50.892;3.992;2023-05-10T16:16:23;16.30;99.90
21592;DHT22;10958;50.892;3.992;2023-05-10T16:18:51;16.40;99.90
21592;DHT22;10958;50.892;3.992;2023-05-10T16:21:17;16.60;99.90
21592;DHT22;10958;50.892;3.992;2023-05-10T16:23:44;16.20;99.90
21592;DHT22;10958;50.892;3.992;2023-05-10T16:26:11;16.00;99.90
21592;DHT22;10958;50.892;3.992;2023-05-10T16:28:36;16.10;99.90
21592;DHT22;10958;50.892;3.992;2023-05-10T16:31:04;16.30;99.90
21592;DHT22;10958;50.892;3.992;2023-05-10T16:33:30;16.50;99.90
21592;DHT22;10958;50.892;3.992;2023-05-10T16:35:55;16.80;99.90
21592;DHT22;10958;50.892;3.992;2023-05-10T16:38:21;16.80;99.90
21592;DHT22;10958;50.892;3.992;2023-05-10T16:40:47;16.80;99.90